Time,TemperatureF,DewpointF,PressureIn,WindDirection,WindDirectionDegrees,WindSpeedMPH,WindSpeedGustMPH,Humidity,HourlyPrecipIn,Conditions,Clouds,dailyrainin,SoftwareType,DateUTC
2013-06-08 00:00:00,63.0,53.0,29.54,NE,35,19.0,29.0,71,0.01,,,0.01,weatherlink.com 1.10,2013-06-08 06:00:00,
2013-06-08 00:15:00,63.8,53.0,29.53,NNE,31,12.0,28.0,67,0.01,,,0.01,weatherlink.com 1.10,2013-06-08 06:15:00,
2013-06-08 00:30:00,64.9,52.0,29.56,WNW,282,11.0,17.0,63,0.01,,,0.01,weatherlink.com 1.10,2013-06-08 06:30:00,
2013-06-08 00:45:00,62.6,53.0,29.57,SW,219,0.0,11.0,70,0.01,,,0.01,weatherlink.com 1.10,2013-06-08 06:45:00,
2013-06-08 01:00:00,62.9,52.0,29.57,SE,131,4.0,10.0,68,0.00,,,0.01,weatherlink.com 1.10,2013-06-08 07:00:00,
2013-06-08 01:15:00,62.3,52.0,29.58,ESE,112,2.0,7.0,70,0.00,,,0.01,weatherlink.com 1.10,2013-06-08 07:15:00,
2013-06-08 01:30:00,60.9,53.0,29.58,ENE,67,8.0,9.0,75,0.00,,,0.01,weatherlink.com 1.10,2013-06-08 07:30:00,
2013-06-08 01:45:00,59.8,53.0,29.58,NE,53,5.0,6.0,78,0.00,,,0.01,weatherlink.com 1.10,2013-06-08 07:45:00,
2013-06-08 02:00:00,59.1,53.0,29.58,NE,53,4.0,6.0,80,0.00,,,0.01,weatherlink.com 1.10,2013-06-08 08:00:00,
2013-06-08 02:15:00,58.7,53.0,29.59,NE,53,6.0,9.0,80,0.00,,,0.01,weatherlink.com 1.10,2013-06-08 08:15:00,
2013-06-08 02:30:00,58.7,53.0,29.60,NE,53,2.0,9.0,80,0.00,,,0.01,weatherlink.com 1.10,2013-06-08 08:30:00,
2013-06-08 02:45:00,58.6,53.0,29.60,NE,53,3.0,3.0,81,0.00,,,0.01,weatherlink.com 1.10,2013-06-08 08:45:00,
2013-06-08 03:00:00,61.5,51.0,29.60,SE,142,8.0,11.0,69,0.00,,,0.01,weatherlink.com 1.10,2013-06-08 09:00:00,
2013-06-08 03:15:00,62.8,45.0,29.60,East,93,2.0,11.0,53,0.00,,,0.01,weatherlink.com 1.10,2013-06-08 09:15:00,
2013-06-08 03:30:00,64.3,45.0,29.61,NNE,22,5.0,14.0,49,0.00,,,0.01,weatherlink.com 1.10,2013-06-08 09:30:00,
2013-06-08 03:45:00,64.2,42.0,29.61,NNE,17,21.0,31.0,45,0.00,,,0.01,weatherlink.com 1.10,2013-06-08 09:45:00,
2013-06-08 04:00:00,63.7,42.0,29.62,North,360,18.0,28.0,45,0.00,,,0.01,weatherlink.com 1.10,2013-06-08 10:00:00,
2013-06-08 04:15:00,61.5,47.0,29.64,WNW,298,8.0,15.0,59,0.00,,,0.01,weatherlink.com 1.10,2013-06-08 10:15:00,
2013-06-08 04:30:00,60.7,47.0,29.65,NNW,336,8.0,9.0,60,0.00,,,0.01,weatherlink.com 1.10,2013-06-08 10:30:00,
2013-06-08 04:45:00,61.7,42.0,29.66,North,5,13.0,15.0,49,0.00,,,0.01,weatherlink.com 1.10,2013-06-08 10:45:00,
2013-06-08 05:00:00,62.2,40.0,29.66,North,355,5.0,12.0,45,0.00,,,0.01,weatherlink.com 1.10,2013-06-08 11:00:00,
2013-06-08 05:15:00,61.9,40.0,29.66,NNE,25,14.0,18.0,45,0.00,,,0.01,weatherlink.com 1.10,2013-06-08 11:15:00,
2013-06-08 05:30:00,61.3,41.0,29.67,NNE,32,6.0,17.0,48,0.00,,,0.01,weatherlink.com 1.10,2013-06-08 11:30:00,
2013-06-08 05:45:00,61.2,40.0,29.68,North,355,5.0,10.0,45,0.00,,,0.01,weatherlink.com 1.10,2013-06-08 11:45:00,
2013-06-08 06:00:00,61.8,41.0,29.68,North,355,9.0,16.0,46,0.00,,,0.01,weatherlink.com 1.10,2013-06-08 12:00:00,
2013-06-08 06:16:00,59.3,45.0,29.70,NNW,327,3.0,7.0,59,0.00,,,0.01,weatherlink.com 1.10,2013-06-08 12:16:00,
2013-06-08 06:31:00,61.1,42.0,29.70,NNW,327,4.0,8.0,50,0.00,,,0.01,weatherlink.com 1.10,2013-06-08 12:31:00,
2013-06-08 06:46:00,62.1,42.0,29.71,NNW,327,4.0,4.0,48,0.00,,,0.01,weatherlink.com 1.10,2013-06-08 12:46:00,
2013-06-08 07:01:00,61.8,43.0,29.72,NNW,327,7.0,9.0,50,0.00,,,0.01,weatherlink.com 1.10,2013-06-08 13:01:00,
2013-06-08 07:16:00,61.6,44.0,29.72,North,5,11.0,19.0,52,0.00,,,0.00,weatherlink.com 1.10,2013-06-08 13:16:00,
2013-06-08 07:31:00,62.1,45.0,29.72,NNE,32,8.0,20.0,53,0.00,,,0.00,weatherlink.com 1.10,2013-06-08 13:31:00,
2013-06-08 07:46:00,62.5,45.0,29.72,NNE,28,8.0,15.0,53,0.00,,,0.00,weatherlink.com 1.10,2013-06-08 13:46:00,
2013-06-08 08:01:00,63.6,45.0,29.72,NNE,20,5.0,11.0,51,0.00,,,0.00,weatherlink.com 1.10,2013-06-08 14:01:00,
2013-06-08 08:16:00,63.8,46.0,29.73,NNE,21,7.0,8.0,53,0.00,,,0.00,weatherlink.com 1.10,2013-06-08 14:16:00,
2013-06-08 08:31:00,63.7,46.0,29.73,NE,55,3.0,8.0,52,0.00,,,0.00,weatherlink.com 1.10,2013-06-08 14:31:00,
2013-06-08 08:46:00,64.8,44.0,29.73,NE,55,0.0,8.0,48,0.00,,,0.00,weatherlink.com 1.10,2013-06-08 14:46:00,
2013-06-08 09:01:00,66.7,44.0,29.73,NE,55,2.0,5.0,44,0.00,,,0.00,weatherlink.com 1.10,2013-06-08 15:01:00,
2013-06-08 09:31:00,67.9,42.0,29.73,NE,55,1.0,6.0,39,0.00,,,0.00,weatherlink.com 1.10,2013-06-08 15:31:00,
2013-06-08 09:46:00,68.4,42.0,29.72,ENE,70,11.0,13.0,38,0.00,,,0.00,weatherlink.com 1.10,2013-06-08 15:46:00,
2013-06-08 10:16:00,68.6,40.0,29.72,ENE,66,10.0,14.0,36,0.00,,,0.00,weatherlink.com 1.10,2013-06-08 16:16:00,
2013-06-08 10:31:00,69.1,43.0,29.71,NE,50,6.0,14.0,39,0.00,,,0.00,weatherlink.com 1.10,2013-06-08 16:31:00,
2013-06-08 10:46:00,69.1,42.0,29.72,NE,53,11.0,18.0,37,0.00,,,0.00,weatherlink.com 1.10,2013-06-08 16:46:00,
2013-06-08 11:01:00,69.5,40.0,29.71,ENE,58,8.0,13.0,34,0.00,,,0.00,weatherlink.com 1.10,2013-06-08 17:01:00,
2013-06-08 11:16:00,70.1,39.0,29.71,NE,40,8.0,12.0,32,0.00,,,0.00,weatherlink.com 1.10,2013-06-08 17:16:00,
2013-06-08 11:31:00,70.3,39.0,29.71,NE,52,6.0,10.0,32,0.00,,,0.00,weatherlink.com 1.10,2013-06-08 17:31:00,
2013-06-08 11:46:00,70.8,39.0,29.71,NE,34,4.0,15.0,31,0.00,,,0.00,weatherlink.com 1.10,2013-06-08 17:46:00,
2013-06-08 12:01:00,71.5,40.0,29.71,NE,41,10.0,15.0,32,0.00,,,0.00,weatherlink.com 1.10,2013-06-08 18:01:00,
2013-06-08 12:16:00,71.3,39.0,29.71,NE,56,1.0,11.0,31,0.00,,,0.00,weatherlink.com 1.10,2013-06-08 18:16:00,
2013-06-08 12:31:00,71.9,40.0,29.70,NE,40,11.0,16.0,31,0.00,,,0.00,weatherlink.com 1.10,2013-06-08 18:31:00,
2013-06-08 12:46:00,72.4,39.0,29.70,NE,53,10.0,15.0,30,0.00,,,0.00,weatherlink.com 1.10,2013-06-08 18:46:00,
2013-06-08 13:01:00,73.0,39.0,29.70,NNE,12,10.0,17.0,29,0.00,,,0.00,weatherlink.com 1.10,2013-06-08 19:01:00,
2013-06-08 13:16:00,72.9,39.0,29.70,NE,40,4.0,15.0,29,0.00,,,0.00,weatherlink.com 1.10,2013-06-08 19:16:00,
2013-06-08 13:31:00,74.2,38.0,29.70,ENE,67,9.0,13.0,27,0.00,,,0.00,weatherlink.com 1.10,2013-06-08 19:31:00,
2013-06-08 13:46:00,74.3,39.0,29.69,NE,47,7.0,12.0,28,0.00,,,0.00,weatherlink.com 1.10,2013-06-08 19:46:00,
2013-06-08 14:01:00,74.6,38.0,29.69,NNE,28,10.0,13.0,27,0.00,,,0.00,weatherlink.com 1.10,2013-06-08 20:01:00,
2013-06-08 14:16:00,74.4,36.0,29.69,ENE,66,8.0,13.0,25,0.00,,,0.00,weatherlink.com 1.10,2013-06-08 20:16:00,
2013-06-08 14:31:00,74.7,38.0,29.68,ENE,78,3.0,9.0,26,0.00,,,0.00,weatherlink.com 1.10,2013-06-08 20:31:00,
2013-06-08 14:46:00,75.1,36.0,29.68,NE,49,3.0,9.0,24,0.00,,,0.00,weatherlink.com 1.10,2013-06-08 20:46:00,
2013-06-08 15:02:00,75.8,35.0,29.68,ENE,58,11.0,12.0,23,0.00,,,0.00,weatherlink.com 1.10,2013-06-08 21:02:00,
2013-06-08 15:17:00,76.3,35.0,29.68,NE,38,10.0,12.0,22,0.00,,,0.00,weatherlink.com 1.10,2013-06-08 21:17:00,
2013-06-08 15:32:00,76.8,34.0,29.68,NE,55,9.0,15.0,21,0.00,,,0.00,weatherlink.com 1.10,2013-06-08 21:32:00,
2013-06-08 15:47:00,76.3,31.0,29.68,NE,51,10.0,16.0,19,0.00,,,0.00,weatherlink.com 1.10,2013-06-08 21:47:00,
2013-06-08 16:02:00,77.6,33.0,29.67,NNE,26,12.0,24.0,20,0.00,,,0.00,weatherlink.com 1.10,2013-06-08 22:02:00,
2013-06-08 16:17:00,77.0,30.0,29.67,NE,51,10.0,15.0,18,0.00,,,0.00,weatherlink.com 1.10,2013-06-08 22:17:00,
2013-06-08 16:32:00,76.6,33.0,29.68,NE,51,12.0,14.0,20,0.00,,,0.00,weatherlink.com 1.10,2013-06-08 22:32:00,
2013-06-08 16:47:00,76.2,32.0,29.68,NNE,32,9.0,18.0,20,0.00,,,0.00,weatherlink.com 1.10,2013-06-08 22:47:00,
2013-06-08 17:02:00,76.2,33.0,29.68,NNE,30,10.0,14.0,21,0.00,,,0.00,weatherlink.com 1.10,2013-06-08 23:02:00,
2013-06-08 17:17:00,76.1,32.0,29.69,NNE,22,10.0,16.0,20,0.00,,,0.00,weatherlink.com 1.10,2013-06-08 23:17:00,
2013-06-08 17:32:00,76.3,34.0,29.69,NNE,17,8.0,12.0,21,0.00,,,0.00,weatherlink.com 1.10,2013-06-08 23:32:00,
2013-06-08 17:47:00,76.2,31.0,29.68,ENE,58,13.0,16.0,19,0.00,,,0.00,weatherlink.com 1.10,2013-06-08 23:47:00,
2013-06-08 18:02:00,76.6,30.0,29.68,NE,51,9.0,14.0,18,0.00,,,0.00,weatherlink.com 1.10,2013-06-09 00:02:00,
2013-06-08 18:17:00,76.8,30.0,29.68,NNE,22,10.0,19.0,18,0.00,,,0.00,weatherlink.com 1.10,2013-06-09 00:17:00,
2013-06-08 18:32:00,76.9,32.0,29.68,NNE,18,13.0,16.0,19,0.00,,,0.00,weatherlink.com 1.10,2013-06-09 00:32:00,
2013-06-08 18:47:00,76.6,31.0,29.68,NNE,31,10.0,17.0,19,0.00,,,0.00,weatherlink.com 1.10,2013-06-09 00:47:00,
2013-06-08 19:02:00,77.0,30.0,29.68,NNE,28,12.0,19.0,18,0.00,,,0.00,weatherlink.com 1.10,2013-06-09 01:02:00,
2013-06-08 19:17:00,76.6,33.0,29.68,NNE,19,10.0,18.0,20,0.00,,,0.00,weatherlink.com 1.10,2013-06-09 01:17:00,
2013-06-08 19:32:00,76.5,31.0,29.68,NNE,32,13.0,17.0,19,0.00,,,0.00,weatherlink.com 1.10,2013-06-09 01:32:00,
2013-06-08 19:47:00,75.8,32.0,29.68,NNE,32,13.0,16.0,20,0.00,,,0.00,weatherlink.com 1.10,2013-06-09 01:47:00,
2013-06-08 20:02:00,75.1,36.0,29.68,NNE,19,7.0,15.0,24,0.00,,,0.00,weatherlink.com 1.10,2013-06-09 02:02:00,
2013-06-08 20:17:00,73.8,37.0,29.69,North,11,12.0,14.0,26,0.00,,,0.00,weatherlink.com 1.10,2013-06-09 02:17:00,
2013-06-08 20:32:00,71.4,37.0,29.69,NNE,13,9.0,22.0,28,0.00,,,0.00,weatherlink.com 1.10,2013-06-09 02:32:00,
2013-06-08 20:47:00,70.0,38.0,29.70,North,360,11.0,13.0,31,0.00,,,0.00,weatherlink.com 1.10,2013-06-09 02:47:00,
2013-06-08 21:02:00,69.0,39.0,29.70,NNE,25,8.0,13.0,33,0.00,,,0.00,weatherlink.com 1.10,2013-06-09 03:02:00,
2013-06-08 21:17:00,67.2,39.0,29.70,NNE,12,7.0,9.0,35,0.00,,,0.00,weatherlink.com 1.10,2013-06-09 03:17:00,
2013-06-08 21:32:00,66.0,40.0,29.71,NNE,12,4.0,6.0,38,0.00,,,0.00,weatherlink.com 1.10,2013-06-09 03:32:00,
2013-06-08 21:47:00,65.4,40.0,29.73,NNE,12,0.0,4.0,40,0.00,,,0.00,weatherlink.com 1.10,2013-06-09 03:47:00,
2013-06-08 22:02:00,64.5,41.0,29.73,NNE,12,2.0,4.0,42,0.00,,,0.00,weatherlink.com 1.10,2013-06-09 04:02:00,
2013-06-08 22:17:00,64.3,40.0,29.74,NNE,12,1.0,3.0,41,0.00,,,0.00,weatherlink.com 1.10,2013-06-09 04:17:00,
2013-06-08 22:32:00,63.7,40.0,29.74,NNE,12,3.0,4.0,42,0.00,,,0.00,weatherlink.com 1.10,2013-06-09 04:32:00,
2013-06-08 22:47:00,62.9,41.0,29.75,NNE,12,0.0,3.0,45,0.00,,,0.00,weatherlink.com 1.10,2013-06-09 04:47:00,
2013-06-08 23:02:00,62.5,41.0,29.74,NNE,12,4.0,4.0,46,0.00,,,0.00,weatherlink.com 1.10,2013-06-09 05:02:00,
2013-06-08 23:17:00,59.5,42.0,29.74,NNE,12,0.0,5.0,52,0.00,,,0.00,weatherlink.com 1.10,2013-06-09 05:17:00,
2013-06-08 23:32:00,59.1,41.0,29.75,NNE,12,0.0,0.0,51,0.00,,,0.00,weatherlink.com 1.10,2013-06-09 05:32:00,
2013-06-08 23:47:00,58.6,41.0,29.75,NNE,12,0.0,1.0,53,0.00,,,0.00,weatherlink.com 1.10,2013-06-09 05:47:00,